sensor_id;sensor_type;location;lat;lon;timestamp;P1;durP1;ratioP1;P2;durP2;ratioP2
16450;SDS011;12243;42.708;23.310;2023-04-25T00:01:37;3.97;;;3.53;;
16450;SDS011;12243;42.708;23.310;2023-04-25T00:04:04;4.47;;;4.00;;
16450;SDS011;12243;42.708;23.310;2023-04-25T00:06:32;4.03;;;3.73;;
16450;SDS011;12243;42.708;23.310;2023-04-25T00:09:01;4.33;;;3.93;;
16450;SDS011;12243;42.708;23.310;2023-04-25T00:11:28;4.70;;;3.80;;
16450;SDS011;12243;42.708;23.310;2023-04-25T00:13:57;4.83;;;4.03;;
16450;SDS011;12243;42.708;23.310;2023-04-25T00:16:25;4.27;;;3.80;;
16450;SDS011;12243;42.708;23.310;2023-04-25T00:18:52;4.30;;;4.00;;
16450;SDS011;12243;42.708;23.310;2023-04-25T00:21:19;5.20;;;3.83;;
16450;SDS011;12243;42.708;23.310;2023-04-25T00:23:47;4.40;;;4.00;;
16450;SDS011;12243;42.708;23.310;2023-04-25T00:26:14;4.50;;;4.20;;
16450;SDS011;12243;42.708;23.310;2023-04-25T00:28:41;6.40;;;4.53;;
16450;SDS011;12243;42.708;23.310;2023-04-25T00:31:09;4.80;;;4.40;;
16450;SDS011;12243;42.708;23.310;2023-04-25T00:33:36;5.97;;;4.83;;
16450;SDS011;12243;42.708;23.310;2023-04-25T00:36:03;4.87;;;4.30;;
16450;SDS011;12243;42.708;23.310;2023-04-25T00:38:30;5.37;;;4.87;;
16450;SDS011;12243;42.708;23.310;2023-04-25T00:40:57;5.20;;;4.80;;
16450;SDS011;12243;42.708;23.310;2023-04-25T00:43:24;5.10;;;4.70;;
16450;SDS011;12243;42.708;23.310;2023-04-25T00:45:52;4.67;;;4.40;;
16450;SDS011;12243;42.708;23.310;2023-04-25T00:48:22;5.80;;;5.13;;
16450;SDS011;12243;42.708;23.310;2023-04-25T00:50:51;5.67;;;5.20;;
16450;SDS011;12243;42.708;23.310;2023-04-25T00:53:19;5.73;;;5.20;;
16450;SDS011;12243;42.708;23.310;2023-04-25T00:55:46;6.63;;;5.20;;
16450;SDS011;12243;42.708;23.310;2023-04-25T00:58:16;5.80;;;5.30;;
16450;SDS011;12243;42.708;23.310;2023-04-25T01:00:43;5.97;;;5.47;;
16450;SDS011;12243;42.708;23.310;2023-04-25T01:03:12;6.03;;;5.47;;
16450;SDS011;12243;42.708;23.310;2023-04-25T01:05:40;6.20;;;5.77;;
16450;SDS011;12243;42.708;23.310;2023-04-25T01:08:08;6.70;;;6.10;;
16450;SDS011;12243;42.708;23.310;2023-04-25T01:10:35;6.80;;;6.23;;
16450;SDS011;12243;42.708;23.310;2023-04-25T01:13:03;6.70;;;6.20;;
16450;SDS011;12243;42.708;23.310;2023-04-25T01:15:30;6.93;;;6.40;;
16450;SDS011;12243;42.708;23.310;2023-04-25T01:17:57;7.30;;;6.60;;
16450;SDS011;12243;42.708;23.310;2023-04-25T01:20:26;7.67;;;6.97;;
16450;SDS011;12243;42.708;23.310;2023-04-25T01:22:56;6.60;;;6.10;;
16450;SDS011;12243;42.708;23.310;2023-04-25T01:25:23;6.60;;;5.90;;
16450;SDS011;12243;42.708;23.310;2023-04-25T01:27:51;7.03;;;6.20;;
16450;SDS011;12243;42.708;23.310;2023-04-25T01:30:18;6.17;;;5.73;;
16450;SDS011;12243;42.708;23.310;2023-04-25T01:32:45;5.83;;;5.33;;
16450;SDS011;12243;42.708;23.310;2023-04-25T01:35:13;6.40;;;5.90;;
16450;SDS011;12243;42.708;23.310;2023-04-25T01:37:41;6.70;;;6.20;;
16450;SDS011;12243;42.708;23.310;2023-04-25T01:40:12;6.93;;;6.33;;
16450;SDS011;12243;42.708;23.310;2023-04-25T01:42:41;6.63;;;6.03;;
16450;SDS011;12243;42.708;23.310;2023-04-25T01:45:09;7.50;;;6.90;;
16450;SDS011;12243;42.708;23.310;2023-04-25T01:47:37;6.50;;;5.93;;
16450;SDS011;12243;42.708;23.310;2023-04-25T01:50:05;6.43;;;5.93;;
16450;SDS011;12243;42.708;23.310;2023-04-25T01:52:35;6.77;;;6.10;;
16450;SDS011;12243;42.708;23.310;2023-04-25T01:55:02;7.30;;;6.60;;
16450;SDS011;12243;42.708;23.310;2023-04-25T01:57:34;6.40;;;5.83;;
16450;SDS011;12243;42.708;23.310;2023-04-25T02:00:03;6.70;;;6.10;;
16450;SDS011;12243;42.708;23.310;2023-04-25T02:02:38;9.70;;;6.37;;
16450;SDS011;12243;42.708;23.310;2023-04-25T02:05:12;5.90;;;5.50;;
16450;SDS011;12243;42.708;23.310;2023-04-25T02:07:41;5.97;;;5.57;;
16450;SDS011;12243;42.708;23.310;2023-04-25T02:10:08;8.30;;;5.37;;
16450;SDS011;12243;42.708;23.310;2023-04-25T02:12:49;6.13;;;5.60;;
16450;SDS011;12243;42.708;23.310;2023-04-25T02:15:26;5.73;;;5.27;;
16450;SDS011;12243;42.708;23.310;2023-04-25T02:17:57;6.03;;;5.53;;
16450;SDS011;12243;42.708;23.310;2023-04-25T02:20:25;5.30;;;4.90;;
16450;SDS011;12243;42.708;23.310;2023-04-25T02:22:54;5.90;;;5.40;;
16450;SDS011;12243;42.708;23.310;2023-04-25T02:25:21;5.97;;;5.57;;
16450;SDS011;12243;42.708;23.310;2023-04-25T02:27:50;5.80;;;5.40;;
16450;SDS011;12243;42.708;23.310;2023-04-25T02:30:19;6.10;;;5.70;;
16450;SDS011;12243;42.708;23.310;2023-04-25T02:32:45;6.23;;;5.63;;
16450;SDS011;12243;42.708;23.310;2023-04-25T02:35:13;6.20;;;5.70;;
16450;SDS011;12243;42.708;23.310;2023-04-25T02:37:40;6.03;;;5.63;;
16450;SDS011;12243;42.708;23.310;2023-04-25T02:40:07;5.73;;;5.23;;
16450;SDS011;12243;42.708;23.310;2023-04-25T02:42:35;6.40;;;5.93;;
16450;SDS011;12243;42.708;23.310;2023-04-25T02:45:04;6.30;;;5.80;;
16450;SDS011;12243;42.708;23.310;2023-04-25T02:47:31;7.10;;;6.40;;
16450;SDS011;12243;42.708;23.310;2023-04-25T02:49:58;6.60;;;6.10;;
16450;SDS011;12243;42.708;23.310;2023-04-25T02:52:25;7.03;;;6.53;;
16450;SDS011;12243;42.708;23.310;2023-04-25T02:55:00;7.03;;;6.50;;
16450;SDS011;12243;42.708;23.310;2023-04-25T02:57:29;6.93;;;6.33;;
16450;SDS011;12243;42.708;23.310;2023-04-25T02:59:56;6.83;;;6.20;;
16450;SDS011;12243;42.708;23.310;2023-04-25T03:02:24;7.27;;;6.67;;
16450;SDS011;12243;42.708;23.310;2023-04-25T03:04:51;6.43;;;5.93;;
16450;SDS011;12243;42.708;23.310;2023-04-25T03:07:19;6.63;;;6.13;;
16450;SDS011;12243;42.708;23.310;2023-04-25T03:09:47;7.20;;;6.60;;
16450;SDS011;12243;42.708;23.310;2023-04-25T03:12:15;7.50;;;6.90;;
16450;SDS011;12243;42.708;23.310;2023-04-25T03:14:42;6.70;;;6.20;;
16450;SDS011;12243;42.708;23.310;2023-04-25T03:17:09;6.53;;;5.90;;
16450;SDS011;12243;42.708;23.310;2023-04-25T03:19:37;6.33;;;5.83;;
16450;SDS011;12243;42.708;23.310;2023-04-25T03:22:04;5.97;;;5.53;;
16450;SDS011;12243;42.708;23.310;2023-04-25T03:24:31;6.40;;;5.80;;
16450;SDS011;12243;42.708;23.310;2023-04-25T03:26:58;7.30;;;6.80;;
16450;SDS011;12243;42.708;23.310;2023-04-25T03:29:25;7.17;;;6.57;;
16450;SDS011;12243;42.708;23.310;2023-04-25T03:31:55;7.00;;;6.50;;
16450;SDS011;12243;42.708;23.310;2023-04-25T03:34:22;7.37;;;6.77;;
16450;SDS011;12243;42.708;23.310;2023-04-25T03:36:50;7.20;;;6.47;;
16450;SDS011;12243;42.708;23.310;2023-04-25T03:39:17;7.20;;;6.60;;
16450;SDS011;12243;42.708;23.310;2023-04-25T03:41:56;6.70;;;6.00;;
16450;SDS011;12243;42.708;23.310;2023-04-25T03:44:23;7.97;;;7.27;;
16450;SDS011;12243;42.708;23.310;2023-04-25T03:46:50;7.90;;;7.20;;
16450;SDS011;12243;42.708;23.310;2023-04-25T03:49:18;7.77;;;7.07;;
16450;SDS011;12243;42.708;23.310;2023-04-25T03:52:01;9.03;;;6.80;;
16450;SDS011;12243;42.708;23.310;2023-04-25T03:54:34;7.77;;;7.07;;
16450;SDS011;12243;42.708;23.310;2023-04-25T03:57:08;6.90;;;6.40;;
16450;SDS011;12243;42.708;23.310;2023-04-25T03:59:38;8.37;;;7.13;;
16450;SDS011;12243;42.708;23.310;2023-04-25T04:02:07;7.67;;;7.10;;
16450;SDS011;12243;42.708;23.310;2023-04-25T04:04:35;7.73;;;7.10;;
16450;SDS011;12243;42.708;23.310;2023-04-25T04:07:03;8.20;;;7.50;;
16450;SDS011;12243;42.708;23.310;2023-04-25T04:09:34;8.17;;;7.47;;
16450;SDS011;12243;42.708;23.310;2023-04-25T04:12:06;8.43;;;7.57;;
16450;SDS011;12243;42.708;23.310;2023-04-25T04:14:34;7.53;;;6.97;;
16450;SDS011;12243;42.708;23.310;2023-04-25T04:17:01;7.70;;;7.00;;
16450;SDS011;12243;42.708;23.310;2023-04-25T04:19:29;8.33;;;7.67;;
16450;SDS011;12243;42.708;23.310;2023-04-25T04:22:12;10.70;;;9.47;;
16450;SDS011;12243;42.708;23.310;2023-04-25T04:24:40;9.00;;;8.17;;
16450;SDS011;12243;42.708;23.310;2023-04-25T04:27:10;8.93;;;8.13;;
16450;SDS011;12243;42.708;23.310;2023-04-25T04:29:49;10.93;;;8.50;;
16450;SDS011;12243;42.708;23.310;2023-04-25T04:32:37;9.17;;;8.37;;
16450;SDS011;12243;42.708;23.310;2023-04-25T04:35:05;9.27;;;8.50;;
16450;SDS011;12243;42.708;23.310;2023-04-25T04:37:36;7.87;;;7.13;;
16450;SDS011;12243;42.708;23.310;2023-04-25T04:40:04;8.27;;;7.57;;
16450;SDS011;12243;42.708;23.310;2023-04-25T04:42:44;7.90;;;7.30;;
16450;SDS011;12243;42.708;23.310;2023-04-25T04:45:34;9.70;;;8.90;;
16450;SDS011;12243;42.708;23.310;2023-04-25T04:48:10;8.80;;;8.10;;
16450;SDS011;12243;42.708;23.310;2023-04-25T04:51:04;9.40;;;8.60;;
16450;SDS011;12243;42.708;23.310;2023-04-25T04:53:51;8.77;;;7.97;;
16450;SDS011;12243;42.708;23.310;2023-04-25T04:56:43;9.80;;;8.43;;
16450;SDS011;12243;42.708;23.310;2023-04-25T04:59:16;9.97;;;9.17;;
16450;SDS011;12243;42.708;23.310;2023-04-25T05:01:58;9.90;;;9.10;;
16450;SDS011;12243;42.708;23.310;2023-04-25T05:04:55;11.53;;;10.37;;
16450;SDS011;12243;42.708;23.310;2023-04-25T05:07:36;12.60;;;11.50;;
16450;SDS011;12243;42.708;23.310;2023-04-25T05:10:19;20.03;;;16.87;;
16450;SDS011;12243;42.708;23.310;2023-04-25T05:13:05;13.27;;;12.00;;
16450;SDS011;12243;42.708;23.310;2023-04-25T05:15:43;12.47;;;11.27;;
16450;SDS011;12243;42.708;23.310;2023-04-25T05:18:34;12.67;;;11.37;;
16450;SDS011;12243;42.708;23.310;2023-04-25T05:21:24;9.97;;;9.07;;
16450;SDS011;12243;42.708;23.310;2023-04-25T05:24:08;9.73;;;8.83;;
16450;SDS011;12243;42.708;23.310;2023-04-25T05:26:55;9.40;;;8.50;;
16450;SDS011;12243;42.708;23.310;2023-04-25T05:29:45;8.93;;;8.03;;
16450;SDS011;12243;42.708;23.310;2023-04-25T05:32:27;10.20;;;9.20;;
16450;SDS011;12243;42.708;23.310;2023-04-25T05:34:55;10.17;;;9.13;;
16450;SDS011;12243;42.708;23.310;2023-04-25T05:37:25;11.17;;;9.07;;
16450;SDS011;12243;42.708;23.310;2023-04-25T05:40:02;9.77;;;8.87;;
16450;SDS011;12243;42.708;23.310;2023-04-25T05:42:50;10.90;;;9.90;;
16450;SDS011;12243;42.708;23.310;2023-04-25T05:45:26;10.50;;;9.50;;
16450;SDS011;12243;42.708;23.310;2023-04-25T05:48:05;10.97;;;9.80;;
16450;SDS011;12243;42.708;23.310;2023-04-25T05:50:41;12.00;;;9.23;;
16450;SDS011;12243;42.708;23.310;2023-04-25T05:53:32;10.93;;;9.83;;
16450;SDS011;12243;42.708;23.310;2023-04-25T05:56:00;10.67;;;9.57;;
16450;SDS011;12243;42.708;23.310;2023-04-25T05:58:29;10.63;;;9.63;;
16450;SDS011;12243;42.708;23.310;2023-04-25T06:00:58;10.73;;;9.63;;
16450;SDS011;12243;42.708;23.310;2023-04-25T06:03:25;9.43;;;8.63;;
16450;SDS011;12243;42.708;23.310;2023-04-25T06:05:52;9.27;;;8.47;;
16450;SDS011;12243;42.708;23.310;2023-04-25T06:08:19;8.67;;;7.97;;
16450;SDS011;12243;42.708;23.310;2023-04-25T06:10:46;9.23;;;7.73;;
16450;SDS011;12243;42.708;23.310;2023-04-25T06:13:13;8.07;;;7.27;;
16450;SDS011;12243;42.708;23.310;2023-04-25T06:15:42;7.90;;;7.20;;
16450;SDS011;12243;42.708;23.310;2023-04-25T06:18:10;7.93;;;7.13;;
16450;SDS011;12243;42.708;23.310;2023-04-25T06:20:38;7.90;;;7.20;;
16450;SDS011;12243;42.708;23.310;2023-04-25T06:23:05;8.93;;;8.10;;
16450;SDS011;12243;42.708;23.310;2023-04-25T06:25:47;10.20;;;9.30;;
16450;SDS011;12243;42.708;23.310;2023-04-25T06:28:14;10.47;;;9.67;;
16450;SDS011;12243;42.708;23.310;2023-04-25T06:30:43;13.37;;;10.60;;
16450;SDS011;12243;42.708;23.310;2023-04-25T06:33:15;10.57;;;9.50;;
16450;SDS011;12243;42.708;23.310;2023-04-25T06:35:42;11.53;;;9.97;;
16450;SDS011;12243;42.708;23.310;2023-04-25T06:38:13;9.77;;;8.13;;
16450;SDS011;12243;42.708;23.310;2023-04-25T06:40:44;12.63;;;8.20;;
16450;SDS011;12243;42.708;23.310;2023-04-25T06:43:11;7.03;;;6.33;;
16450;SDS011;12243;42.708;23.310;2023-04-25T06:45:54;9.00;;;6.73;;
16450;SDS011;12243;42.708;23.310;2023-04-25T06:48:24;7.53;;;5.90;;
16450;SDS011;12243;42.708;23.310;2023-04-25T06:50:52;5.00;;;4.60;;
16450;SDS011;12243;42.708;23.310;2023-04-25T06:53:19;6.13;;;5.53;;
16450;SDS011;12243;42.708;23.310;2023-04-25T06:55:51;7.53;;;5.20;;
16450;SDS011;12243;42.708;23.310;2023-04-25T06:58:20;7.87;;;6.70;;
16450;SDS011;12243;42.708;23.310;2023-04-25T07:01:07;7.17;;;5.70;;
16450;SDS011;12243;42.708;23.310;2023-04-25T07:03:35;7.87;;;6.67;;
16450;SDS011;12243;42.708;23.310;2023-04-25T07:06:07;6.47;;;5.80;;
16450;SDS011;12243;42.708;23.310;2023-04-25T07:08:34;6.13;;;5.63;;
16450;SDS011;12243;42.708;23.310;2023-04-25T07:11:01;7.50;;;6.13;;
16450;SDS011;12243;42.708;23.310;2023-04-25T07:13:28;8.20;;;6.83;;
16450;SDS011;12243;42.708;23.310;2023-04-25T07:15:55;10.20;;;6.73;;
16450;SDS011;12243;42.708;23.310;2023-04-25T07:18:24;7.60;;;6.90;;
16450;SDS011;12243;42.708;23.310;2023-04-25T07:20:51;7.43;;;6.20;;
16450;SDS011;12243;42.708;23.310;2023-04-25T07:23:18;7.77;;;6.27;;
16450;SDS011;12243;42.708;23.310;2023-04-25T07:25:46;7.77;;;6.53;;
16450;SDS011;12243;42.708;23.310;2023-04-25T07:28:17;11.43;;;6.40;;
16450;SDS011;12243;42.708;23.310;2023-04-25T07:30:46;10.50;;;6.33;;
16450;SDS011;12243;42.708;23.310;2023-04-25T07:33:13;9.13;;;7.10;;
16450;SDS011;12243;42.708;23.310;2023-04-25T07:35:42;12.57;;;8.20;;
16450;SDS011;12243;42.708;23.310;2023-04-25T07:38:10;10.53;;;8.43;;
16450;SDS011;12243;42.708;23.310;2023-04-25T07:40:37;13.60;;;10.03;;
16450;SDS011;12243;42.708;23.310;2023-04-25T07:43:07;14.57;;;7.40;;
16450;SDS011;12243;42.708;23.310;2023-04-25T07:45:50;11.13;;;6.85;;
16450;SDS011;12243;42.708;23.310;2023-04-25T07:48:18;9.50;;;6.73;;
16450;SDS011;12243;42.708;23.310;2023-04-25T07:50:48;10.27;;;6.87;;
16450;SDS011;12243;42.708;23.310;2023-04-25T07:53:15;8.73;;;6.93;;
16450;SDS011;12243;42.708;23.310;2023-04-25T07:55:49;11.53;;;7.40;;
16450;SDS011;12243;42.708;23.310;2023-04-25T07:58:17;9.20;;;6.80;;
16450;SDS011;12243;42.708;23.310;2023-04-25T08:00:49;15.03;;;9.03;;
16450;SDS011;12243;42.708;23.310;2023-04-25T08:03:28;8.60;;;7.78;;
16450;SDS011;12243;42.708;23.310;2023-04-25T08:05:57;9.23;;;7.68;;
16450;SDS011;12243;42.708;23.310;2023-04-25T08:08:27;10.00;;;7.13;;
16450;SDS011;12243;42.708;23.310;2023-04-25T08:10:54;7.95;;;7.25;;
16450;SDS011;12243;42.708;23.310;2023-04-25T08:13:21;13.00;;;7.40;;
16450;SDS011;12243;42.708;23.310;2023-04-25T08:15:48;11.30;;;6.53;;
16450;SDS011;12243;42.708;23.310;2023-04-25T08:18:16;12.73;;;6.68;;
16450;SDS011;12243;42.708;23.310;2023-04-25T08:20:43;9.07;;;7.70;;
16450;SDS011;12243;42.708;23.310;2023-04-25T08:23:13;7.88;;;6.65;;
16450;SDS011;12243;42.708;23.310;2023-04-25T08:25:50;15.02;;;6.95;;
16450;SDS011;12243;42.708;23.310;2023-04-25T08:28:21;8.32;;;7.53;;
16450;SDS011;12243;42.708;23.310;2023-04-25T08:30:48;16.95;;;8.63;;
16450;SDS011;12243;42.708;23.310;2023-04-25T08:33:17;10.02;;;7.82;;
16450;SDS011;12243;42.708;23.310;2023-04-25T08:35:59;12.98;;;8.10;;
16450;SDS011;12243;42.708;23.310;2023-04-25T08:38:28;13.30;;;8.68;;
16450;SDS011;12243;42.708;23.310;2023-04-25T08:40:55;11.27;;;9.55;;
16450;SDS011;12243;42.708;23.310;2023-04-25T08:43:23;10.57;;;8.10;;
16450;SDS011;12243;42.708;23.310;2023-04-25T08:45:51;6.27;;;5.37;;
16450;SDS011;12243;42.708;23.310;2023-04-25T08:48:45;9.50;;;6.13;;
16450;SDS011;12243;42.708;23.310;2023-04-25T08:51:19;5.80;;;5.20;;
16450;SDS011;12243;42.708;23.310;2023-04-25T08:53:52;8.23;;;5.30;;
16450;SDS011;12243;42.708;23.310;2023-04-25T08:56:19;7.63;;;5.20;;
16450;SDS011;12243;42.708;23.310;2023-04-25T08:58:48;5.30;;;3.97;;
16450;SDS011;12243;42.708;23.310;2023-04-25T09:01:16;4.32;;;3.92;;
16450;SDS011;12243;42.708;23.310;2023-04-25T09:03:48;4.97;;;4.40;;
16450;SDS011;12243;42.708;23.310;2023-04-25T09:06:18;5.10;;;4.70;;
16450;SDS011;12243;42.708;23.310;2023-04-25T09:08:49;7.85;;;5.15;;
16450;SDS011;12243;42.708;23.310;2023-04-25T09:11:18;5.95;;;5.45;;
16450;SDS011;12243;42.708;23.310;2023-04-25T09:13:45;8.25;;;7.43;;
16450;SDS011;12243;42.708;23.310;2023-04-25T09:16:21;8.80;;;6.15;;
16450;SDS011;12243;42.708;23.310;2023-04-25T09:19:07;5.55;;;4.88;;
16450;SDS011;12243;42.708;23.310;2023-04-25T09:21:48;4.43;;;4.03;;
16450;SDS011;12243;42.708;23.310;2023-04-25T09:24:16;4.63;;;4.22;;
16450;SDS011;12243;42.708;23.310;2023-04-25T09:26:56;5.82;;;5.18;;
16450;SDS011;12243;42.708;23.310;2023-04-25T09:29:28;7.65;;;6.50;;
16450;SDS011;12243;42.708;23.310;2023-04-25T09:32:13;7.20;;;6.60;;
16450;SDS011;12243;42.708;23.310;2023-04-25T09:34:46;7.75;;;6.38;;
16450;SDS011;12243;42.708;23.310;2023-04-25T09:37:18;7.80;;;6.25;;
16450;SDS011;12243;42.708;23.310;2023-04-25T09:40:06;8.15;;;6.28;;
16450;SDS011;12243;42.708;23.310;2023-04-25T09:42:48;8.27;;;4.43;;
16450;SDS011;12243;42.708;23.310;2023-04-25T09:45:15;4.78;;;4.38;;
16450;SDS011;12243;42.708;23.310;2023-04-25T09:47:43;4.32;;;3.92;;
16450;SDS011;12243;42.708;23.310;2023-04-25T09:50:18;4.57;;;3.72;;
16450;SDS011;12243;42.708;23.310;2023-04-25T09:53:02;6.95;;;3.20;;
16450;SDS011;12243;42.708;23.310;2023-04-25T09:55:45;4.28;;;3.00;;
16450;SDS011;12243;42.708;23.310;2023-04-25T09:58:13;2.88;;;2.72;;
16450;SDS011;12243;42.708;23.310;2023-04-25T10:00:41;2.90;;;2.70;;
16450;SDS011;12243;42.708;23.310;2023-04-25T10:03:21;5.47;;;3.00;;
16450;SDS011;12243;42.708;23.310;2023-04-25T10:06:19;2.83;;;2.63;;
16450;SDS011;12243;42.708;23.310;2023-04-25T10:08:49;3.20;;;2.40;;
16450;SDS011;12243;42.708;23.310;2023-04-25T10:11:22;3.05;;;2.85;;
16450;SDS011;12243;42.708;23.310;2023-04-25T10:13:51;3.63;;;3.10;;
16450;SDS011;12243;42.708;23.310;2023-04-25T10:16:19;3.08;;;2.70;;
16450;SDS011;12243;42.708;23.310;2023-04-25T10:18:46;3.72;;;2.80;;
16450;SDS011;12243;42.708;23.310;2023-04-25T10:21:14;3.50;;;2.92;;
16450;SDS011;12243;42.708;23.310;2023-04-25T10:23:42;2.83;;;2.63;;
16450;SDS011;12243;42.708;23.310;2023-04-25T10:26:11;3.05;;;2.85;;
16450;SDS011;12243;42.708;23.310;2023-04-25T10:28:56;2.05;;;1.50;;
16450;SDS011;12243;42.708;23.310;2023-04-25T10:31:24;2.13;;;1.73;;
16450;SDS011;12243;42.708;23.310;2023-04-25T10:33:51;2.50;;;2.20;;
16450;SDS011;12243;42.708;23.310;2023-04-25T10:36:20;1.60;;;1.50;;
16450;SDS011;12243;42.708;23.310;2023-04-25T10:38:48;1.67;;;1.58;;
16450;SDS011;12243;42.708;23.310;2023-04-25T10:41:17;4.60;;;1.70;;
16450;SDS011;12243;42.708;23.310;2023-04-25T10:43:46;1.55;;;1.45;;
16450;SDS011;12243;42.708;23.310;2023-04-25T10:46:16;3.10;;;1.50;;
16450;SDS011;12243;42.708;23.310;2023-04-25T10:48:45;1.60;;;1.50;;
16450;SDS011;12243;42.708;23.310;2023-04-25T10:51:17;2.80;;;1.70;;
16450;SDS011;12243;42.708;23.310;2023-04-25T10:53:56;1.97;;;1.87;;
16450;SDS011;12243;42.708;23.310;2023-04-25T10:56:25;1.10;;;1.10;;
16450;SDS011;12243;42.708;23.310;2023-04-25T10:59:02;1.27;;;1.20;;
16450;SDS011;12243;42.708;23.310;2023-04-25T11:01:36;1.52;;;1.45;;
16450;SDS011;12243;42.708;23.310;2023-04-25T11:04:04;3.05;;;1.27;;
16450;SDS011;12243;42.708;23.310;2023-04-25T11:06:37;1.05;;;1.05;;
16450;SDS011;12243;42.708;23.310;2023-04-25T11:09:13;1.48;;;1.48;;
16450;SDS011;12243;42.708;23.310;2023-04-25T11:11:40;5.75;;;1.20;;
16450;SDS011;12243;42.708;23.310;2023-04-25T11:14:07;1.40;;;1.40;;
16450;SDS011;12243;42.708;23.310;2023-04-25T11:16:35;1.67;;;1.58;;
16450;SDS011;12243;42.708;23.310;2023-04-25T11:19:02;1.20;;;1.20;;
16450;SDS011;12243;42.708;23.310;2023-04-25T11:21:30;1.30;;;1.30;;
16450;SDS011;12243;42.708;23.310;2023-04-25T11:23:58;1.73;;;1.63;;
16450;SDS011;12243;42.708;23.310;2023-04-25T11:26:26;2.08;;;1.40;;
16450;SDS011;12243;42.708;23.310;2023-04-25T11:28:56;1.85;;;1.08;;
16450;SDS011;12243;42.708;23.310;2023-04-25T11:31:24;1.30;;;1.30;;
16450;SDS011;12243;42.708;23.310;2023-04-25T11:33:54;1.10;;;1.10;;
16450;SDS011;12243;42.708;23.310;2023-04-25T11:36:23;2.05;;;1.20;;
16450;SDS011;12243;42.708;23.310;2023-04-25T11:38:51;0.90;;;0.90;;
16450;SDS011;12243;42.708;23.310;2023-04-25T11:41:20;2.23;;;2.00;;
16450;SDS011;12243;42.708;23.310;2023-04-25T11:43:48;2.67;;;1.53;;
16450;SDS011;12243;42.708;23.310;2023-04-25T11:46:17;1.23;;;1.23;;
16450;SDS011;12243;42.708;23.310;2023-04-25T11:48:45;1.37;;;1.30;;
16450;SDS011;12243;42.708;23.310;2023-04-25T11:51:14;2.63;;;1.90;;
16450;SDS011;12243;42.708;23.310;2023-04-25T11:53:41;1.23;;;1.23;;
16450;SDS011;12243;42.708;23.310;2023-04-25T11:56:12;1.70;;;1.40;;
16450;SDS011;12243;42.708;23.310;2023-04-25T12:01:29;1.80;;;1.70;;
16450;SDS011;12243;42.708;23.310;2023-04-25T12:03:57;1.20;;;1.20;;
16450;SDS011;12243;42.708;23.310;2023-04-25T12:06:29;1.38;;;1.27;;
16450;SDS011;12243;42.708;23.310;2023-04-25T12:09:02;1.40;;;1.30;;
16450;SDS011;12243;42.708;23.310;2023-04-25T12:11:30;1.00;;;1.00;;
16450;SDS011;12243;42.708;23.310;2023-04-25T12:14:01;1.27;;;1.17;;
16450;SDS011;12243;42.708;23.310;2023-04-25T12:16:30;2.63;;;1.70;;
16450;SDS011;12243;42.708;23.310;2023-04-25T12:19:07;2.10;;;1.58;;
16450;SDS011;12243;42.708;23.310;2023-04-25T12:21:35;1.70;;;1.60;;
16450;SDS011;12243;42.708;23.310;2023-04-25T12:24:12;8.00;;;1.83;;
16450;SDS011;12243;42.708;23.310;2023-04-25T12:26:50;1.30;;;1.20;;
16450;SDS011;12243;42.708;23.310;2023-04-25T12:29:18;1.10;;;1.10;;
16450;SDS011;12243;42.708;23.310;2023-04-25T12:31:51;7.30;;;2.67;;
16450;SDS011;12243;42.708;23.310;2023-04-25T12:34:20;8.97;;;4.03;;
16450;SDS011;12243;42.708;23.310;2023-04-25T12:36:49;2.53;;;2.17;;
16450;SDS011;12243;42.708;23.310;2023-04-25T12:39:17;2.33;;;2.03;;
16450;SDS011;12243;42.708;23.310;2023-04-25T12:41:45;1.97;;;1.60;;
16450;SDS011;12243;42.708;23.310;2023-04-25T12:44:12;3.00;;;1.50;;
16450;SDS011;12243;42.708;23.310;2023-04-25T12:46:39;2.10;;;2.00;;
16450;SDS011;12243;42.708;23.310;2023-04-25T12:49:07;1.77;;;1.67;;
16450;SDS011;12243;42.708;23.310;2023-04-25T12:51:35;3.00;;;1.43;;
16450;SDS011;12243;42.708;23.310;2023-04-25T12:54:04;2.80;;;1.67;;
16450;SDS011;12243;42.708;23.310;2023-04-25T12:56:32;1.70;;;1.60;;
16450;SDS011;12243;42.708;23.310;2023-04-25T12:58:59;5.90;;;2.03;;
16450;SDS011;12243;42.708;23.310;2023-04-25T13:01:26;3.13;;;2.20;;
16450;SDS011;12243;42.708;23.310;2023-04-25T13:03:53;2.17;;;1.97;;
16450;SDS011;12243;42.708;23.310;2023-04-25T13:06:20;3.73;;;3.43;;
16450;SDS011;12243;42.708;23.310;2023-04-25T13:08:48;5.17;;;3.87;;
16450;SDS011;12243;42.708;23.310;2023-04-25T13:11:16;4.77;;;4.07;;
16450;SDS011;12243;42.708;23.310;2023-04-25T13:13:43;4.20;;;3.80;;
16450;SDS011;12243;42.708;23.310;2023-04-25T13:16:11;3.47;;;3.17;;
16450;SDS011;12243;42.708;23.310;2023-04-25T13:18:39;12.27;;;2.83;;
16450;SDS011;12243;42.708;23.310;2023-04-25T13:21:06;3.13;;;2.70;;
16450;SDS011;12243;42.708;23.310;2023-04-25T13:23:35;5.93;;;3.40;;
16450;SDS011;12243;42.708;23.310;2023-04-25T13:26:02;11.00;;;6.77;;
16450;SDS011;12243;42.708;23.310;2023-04-25T13:28:31;5.20;;;3.70;;
16450;SDS011;12243;42.708;23.310;2023-04-25T13:30:58;3.07;;;2.83;;
16450;SDS011;12243;42.708;23.310;2023-04-25T13:33:25;2.93;;;2.60;;
16450;SDS011;12243;42.708;23.310;2023-04-25T13:35:52;5.63;;;2.80;;
16450;SDS011;12243;42.708;23.310;2023-04-25T13:38:21;5.47;;;2.97;;
16450;SDS011;12243;42.708;23.310;2023-04-25T13:40:48;3.37;;;3.10;;
16450;SDS011;12243;42.708;23.310;2023-04-25T13:43:18;10.13;;;9.13;;
16450;SDS011;12243;42.708;23.310;2023-04-25T13:45:46;7.30;;;6.20;;
16450;SDS011;12243;42.708;23.310;2023-04-25T13:48:13;12.70;;;7.43;;
16450;SDS011;12243;42.708;23.310;2023-04-25T13:50:40;14.70;;;9.07;;
16450;SDS011;12243;42.708;23.310;2023-04-25T13:53:08;7.57;;;6.10;;
16450;SDS011;12243;42.708;23.310;2023-04-25T13:55:35;7.77;;;6.17;;
16450;SDS011;12243;42.708;23.310;2023-04-25T13:58:02;8.30;;;5.10;;
16450;SDS011;12243;42.708;23.310;2023-04-25T14:00:33;4.00;;;3.57;;
16450;SDS011;12243;42.708;23.310;2023-04-25T14:03:04;4.90;;;3.30;;
16450;SDS011;12243;42.708;23.310;2023-04-25T14:05:32;4.47;;;3.30;;
16450;SDS011;12243;42.708;23.310;2023-04-25T14:08:04;3.43;;;3.13;;
16450;SDS011;12243;42.708;23.310;2023-04-25T14:10:34;2.90;;;2.70;;
16450;SDS011;12243;42.708;23.310;2023-04-25T14:13:02;2.53;;;2.43;;
16450;SDS011;12243;42.708;23.310;2023-04-25T14:15:30;4.57;;;4.10;;
16450;SDS011;12243;42.708;23.310;2023-04-25T14:17:57;2.70;;;2.50;;
16450;SDS011;12243;42.708;23.310;2023-04-25T14:20:26;35.85;;;19.25;;
16450;SDS011;12243;42.708;23.310;2023-04-25T14:22:53;10.30;;;9.02;;
16450;SDS011;12243;42.708;23.310;2023-04-25T14:25:21;2.30;;;2.10;;
16450;SDS011;12243;42.708;23.310;2023-04-25T14:27:48;2.10;;;2.00;;
16450;SDS011;12243;42.708;23.310;2023-04-25T14:30:16;1.90;;;1.80;;
16450;SDS011;12243;42.708;23.310;2023-04-25T14:32:43;2.63;;;2.50;;
16450;SDS011;12243;42.708;23.310;2023-04-25T14:35:11;3.42;;;2.10;;
16450;SDS011;12243;42.708;23.310;2023-04-25T14:37:40;2.20;;;2.10;;
16450;SDS011;12243;42.708;23.310;2023-04-25T14:40:07;3.35;;;3.15;;
16450;SDS011;12243;42.708;23.310;2023-04-25T14:42:35;2.78;;;2.50;;
16450;SDS011;12243;42.708;23.310;2023-04-25T14:45:03;3.65;;;3.35;;
16450;SDS011;12243;42.708;23.310;2023-04-25T14:47:31;3.72;;;3.38;;
16450;SDS011;12243;42.708;23.310;2023-04-25T14:49:58;3.10;;;2.90;;
16450;SDS011;12243;42.708;23.310;2023-04-25T14:52:26;2.87;;;2.63;;
16450;SDS011;12243;42.708;23.310;2023-04-25T14:54:55;2.17;;;2.08;;
16450;SDS011;12243;42.708;23.310;2023-04-25T14:57:21;2.20;;;2.10;;